createdAt,value
2018-11-21T00:02:26.953Z,13.60
2018-11-21T00:04:55.016Z,17.20
2018-11-21T00:07:23.096Z,14.70
2018-11-21T00:09:51.178Z,14.60
2018-11-21T00:12:19.209Z,15.40
2018-11-21T00:14:47.265Z,15.60
2018-11-21T00:17:15.362Z,15.90
2018-11-21T00:19:43.410Z,16.17
2018-11-21T00:22:11.459Z,14.30
2018-11-21T00:24:39.512Z,15.30
2018-11-21T00:27:07.573Z,14.70
2018-11-21T00:29:35.608Z,15.13
2018-11-21T00:32:03.654Z,13.17
2018-11-21T00:34:31.684Z,14.00
2018-11-21T00:36:59.936Z,16.00
2018-11-21T00:39:30.293Z,14.43
2018-11-21T00:41:58.334Z,14.37
2018-11-21T00:44:26.397Z,15.53
2018-11-21T00:46:54.516Z,14.00
2018-11-21T00:49:22.548Z,14.17
2018-11-21T00:51:50.641Z,15.13
2018-11-21T00:54:18.685Z,14.40
2018-11-21T00:56:46.754Z,15.07
2018-11-21T00:59:14.906Z,15.03
2018-11-21T01:01:42.987Z,14.00
2018-11-21T01:04:11.031Z,14.57
2018-11-21T01:06:39.106Z,14.40
2018-11-21T01:09:07.550Z,15.83
2018-11-21T01:11:35.612Z,15.67
2018-11-21T01:14:03.677Z,14.67
2018-11-21T01:16:31.717Z,14.67
2018-11-21T01:18:59.766Z,14.13
2018-11-21T01:21:27.834Z,14.50
2018-11-21T01:23:55.893Z,16.17
2018-11-21T01:26:23.964Z,15.23
2018-11-21T01:28:52.038Z,15.03
2018-11-21T01:31:20.081Z,15.20
2018-11-21T01:33:48.215Z,15.30
2018-11-21T01:36:16.267Z,13.83
2018-11-21T01:38:44.323Z,17.37
2018-11-21T01:41:12.920Z,14.37
2018-11-21T01:43:41.020Z,14.87
2018-11-21T01:46:09.099Z,16.83
2018-11-21T01:48:37.138Z,16.50
2018-11-21T01:51:05.207Z,15.23
2018-11-21T01:53:33.404Z,17.30
2018-11-21T01:56:01.457Z,15.43
2018-11-21T01:58:29.756Z,17.30
2018-11-21T02:00:57.818Z,17.53
2018-11-21T02:03:25.866Z,15.80
2018-11-21T02:05:53.961Z,17.57
2018-11-21T02:08:22.040Z,17.90
2018-11-21T02:10:51.544Z,17.27
2018-11-21T02:13:19.619Z,17.73
2018-11-21T02:15:47.676Z,17.03
2018-11-21T02:18:15.715Z,15.07
2018-11-21T02:20:43.800Z,15.90
2018-11-21T02:23:11.879Z,17.60
2018-11-21T02:25:39.937Z,17.67
2018-11-21T02:28:08.022Z,18.00
2018-11-21T02:30:36.082Z,18.10
2018-11-21T02:33:04.386Z,18.40
2018-11-21T02:35:32.449Z,18.27
2018-11-21T02:38:00.488Z,16.93
2018-11-21T02:40:30.855Z,16.10
2018-11-21T02:42:58.904Z,17.47
2018-11-21T02:45:27.008Z,23.50
2018-11-21T02:47:55.064Z,17.70
2018-11-21T02:50:23.147Z,19.57
2018-11-21T02:52:51.575Z,19.87
2018-11-21T02:55:19.626Z,18.43
2018-11-21T02:57:47.684Z,18.27
2018-11-21T03:00:23.559Z,19.20
2018-11-21T03:02:51.595Z,18.90
2018-11-21T03:05:19.676Z,18.10
2018-11-21T03:08:00.381Z,18.87
2018-11-21T03:10:28.669Z,18.37
2018-11-21T03:12:56.934Z,17.60
2018-11-21T03:15:24.980Z,19.47
2018-11-21T03:17:53.062Z,20.07
2018-11-21T03:20:21.126Z,20.37
2018-11-21T03:22:51.529Z,18.60
2018-11-21T03:25:19.582Z,20.07
2018-11-21T03:27:47.650Z,19.30
2018-11-21T03:30:15.701Z,20.43
2018-11-21T03:32:43.766Z,19.10
2018-11-21T03:35:11.824Z,20.37
2018-11-21T03:37:39.869Z,20.80
2018-11-21T03:40:09.588Z,19.33
2018-11-21T03:42:38.198Z,20.03
2018-11-21T03:45:08.273Z,20.20
2018-11-21T03:47:36.453Z,19.30
2018-11-21T03:50:06.139Z,19.70
2018-11-21T03:52:34.199Z,19.93
2018-11-21T03:55:02.290Z,21.00
2018-11-21T03:57:30.334Z,20.50
2018-11-21T03:59:58.376Z,20.80
2018-11-21T04:02:26.439Z,20.77
2018-11-21T04:04:54.482Z,21.03
2018-11-21T04:07:22.538Z,21.03
2018-11-21T04:09:50.615Z,20.13
2018-11-21T04:12:18.665Z,19.20
2018-11-21T04:14:46.742Z,18.80
2018-11-21T04:17:14.809Z,22.00
2018-11-21T04:19:42.849Z,20.30
2018-11-21T04:22:10.911Z,20.27
2018-11-21T04:24:38.968Z,20.20
2018-11-21T04:27:07.011Z,20.80
2018-11-21T04:29:35.073Z,21.97
2018-11-21T04:32:03.119Z,20.67
2018-11-21T04:34:31.180Z,21.80
2018-11-21T04:36:59.232Z,20.30
2018-11-21T04:39:27.283Z,20.50
2018-11-21T04:41:56.561Z,20.80
2018-11-21T04:44:24.635Z,20.13
2018-11-21T04:46:52.683Z,21.40
2018-11-21T04:49:20.929Z,20.40
2018-11-21T04:51:48.985Z,19.70
2018-11-21T04:54:17.055Z,21.70
2018-11-21T04:56:45.108Z,21.37
2018-11-21T04:59:13.170Z,20.60
2018-11-21T05:01:41.227Z,19.53
2018-11-21T05:04:09.314Z,20.80
2018-11-21T05:06:37.383Z,19.23
2018-11-21T05:09:08.514Z,20.37
2018-11-21T05:11:36.573Z,19.47
2018-11-21T05:14:04.972Z,21.67
2018-11-21T05:16:33.029Z,19.23
2018-11-21T05:19:01.066Z,21.87
2018-11-21T05:21:29.133Z,22.33
2018-11-21T05:23:57.239Z,22.10
2018-11-21T05:26:25.316Z,20.00
2018-11-21T05:28:53.366Z,20.20
2018-11-21T05:31:21.431Z,20.07
2018-11-21T05:33:49.507Z,21.07
2018-11-21T05:36:17.593Z,21.23
2018-11-21T05:38:45.640Z,19.73
2018-11-21T05:41:13.698Z,18.30
2018-11-21T05:43:41.744Z,22.30
2018-11-21T05:46:09.988Z,20.90
2018-11-21T05:48:38.035Z,20.10
2018-11-21T05:51:06.109Z,20.70
2018-11-21T05:53:34.209Z,22.03
2018-11-21T05:56:02.293Z,21.70
2018-11-21T05:58:31.104Z,21.07
2018-11-21T06:00:59.212Z,22.43
2018-11-21T06:03:27.269Z,20.43
2018-11-21T06:05:55.340Z,22.20
2018-11-21T06:08:24.423Z,24.00
2018-11-21T06:10:52.840Z,21.57
2018-11-21T06:13:20.928Z,22.27
2018-11-21T06:15:48.985Z,21.07
2018-11-21T06:18:17.083Z,22.57
2018-11-21T06:20:45.136Z,22.10
2018-11-21T06:23:13.242Z,23.23
2018-11-21T06:25:41.327Z,22.60
2018-11-21T06:28:09.463Z,21.43
2018-11-21T06:30:37.522Z,21.13
2018-11-21T06:33:05.955Z,24.80
2018-11-21T06:35:34.010Z,23.67
2018-11-21T06:38:02.129Z,20.73
2018-11-21T06:40:30.192Z,23.00
2018-11-21T06:42:59.454Z,21.10
2018-11-21T06:45:28.581Z,22.27
2018-11-21T06:47:56.989Z,22.63
2018-11-21T06:50:25.212Z,22.80
2018-11-21T06:52:54.438Z,21.83
2018-11-21T06:55:22.473Z,22.50
2018-11-21T06:57:50.560Z,20.40
2018-11-21T07:00:18.685Z,22.40
2018-11-21T07:02:46.766Z,23.90
2018-11-21T07:05:14.808Z,20.77
2018-11-21T07:07:42.866Z,20.53
2018-11-21T07:10:13.050Z,22.40
2018-11-21T07:12:41.312Z,21.00
2018-11-21T07:15:09.497Z,20.27
2018-11-21T07:17:37.758Z,20.37
2018-11-21T07:20:11.377Z,21.50
2018-11-21T07:22:39.741Z,22.90
2018-11-21T07:25:19.463Z,22.10
2018-11-21T07:27:47.500Z,21.80
2018-11-21T07:30:16.357Z,17.40
2018-11-21T07:32:44.469Z,19.57
2018-11-21T07:35:17.844Z,21.43
2018-11-21T07:37:41.474Z,20.43
2018-11-21T07:40:11.188Z,20.33
2018-11-21T07:42:39.235Z,20.20
2018-11-21T07:45:09.217Z,20.57
2018-11-21T07:47:37.752Z,19.70
2018-11-21T07:50:08.542Z,20.63
2018-11-21T07:52:36.763Z,20.67
2018-11-21T07:55:04.982Z,21.80
2018-11-21T07:57:34.661Z,19.50
2018-11-21T08:01:00.287Z,21.67
2018-11-21T08:03:30.177Z,20.93
2018-11-21T08:06:00.639Z,19.60
2018-11-21T08:08:33.789Z,20.40
2018-11-21T08:11:35.929Z,20.17
2018-11-21T08:14:21.821Z,20.87
2018-11-21T08:17:21.368Z,19.03
2018-11-21T08:20:11.739Z,20.07
2018-11-21T08:22:45.871Z,20.73
2018-11-21T08:25:31.710Z,18.93
2018-11-21T08:28:29.858Z,21.90
2018-11-21T08:30:57.993Z,19.00
2018-11-21T08:33:26.192Z,19.57
2018-11-21T08:35:54.302Z,20.13
2018-11-21T08:38:22.353Z,19.90
2018-11-21T08:40:50.496Z,20.10
2018-11-21T08:43:18.641Z,17.47
2018-11-21T08:45:46.759Z,20.43
2018-11-21T08:48:15.627Z,19.30
2018-11-21T08:50:43.770Z,19.43
2018-11-21T08:53:11.801Z,21.30
2018-11-21T08:55:39.976Z,21.50
2018-11-21T08:58:08.448Z,19.90
2018-11-21T09:00:36.605Z,22.47
2018-11-21T09:03:05.303Z,20.50
2018-11-21T09:05:33.347Z,20.80
2018-11-21T09:08:01.397Z,20.37
2018-11-21T09:12:56.812Z,20.60
2018-11-21T09:15:24.865Z,23.30
2018-11-21T09:17:52.938Z,21.03
2018-11-21T09:20:20.985Z,21.70
2018-11-21T09:22:49.055Z,20.27
2018-11-21T09:25:17.107Z,19.77
2018-11-21T09:27:45.162Z,18.30
2018-11-21T09:30:15.319Z,20.10
2018-11-21T09:32:43.815Z,18.37
2018-11-21T09:35:13.577Z,19.83
2018-11-21T09:37:41.645Z,22.50
2018-11-21T09:40:11.461Z,22.00
2018-11-21T09:42:40.581Z,18.87
2018-11-21T09:45:11.399Z,20.10
2018-11-21T09:47:38.542Z,18.30
2018-11-21T09:50:12.874Z,19.57
2018-11-21T09:52:41.357Z,19.47
2018-11-21T09:55:09.621Z,22.20
2018-11-21T09:57:37.793Z,21.60
2018-11-21T10:00:43.006Z,19.00
2018-11-21T10:03:13.253Z,20.77
2018-11-21T10:05:41.893Z,21.70
2018-11-21T10:08:53.216Z,20.07
2018-11-21T10:11:21.704Z,22.20
2018-11-21T10:13:49.776Z,22.73
2018-11-21T10:16:17.845Z,20.20
2018-11-21T10:18:47.550Z,20.53
2018-11-21T10:21:17.993Z,21.30
2018-11-21T10:23:46.035Z,20.67
2018-11-21T10:26:14.097Z,18.60
2018-11-21T10:28:42.609Z,20.00
2018-11-21T10:31:10.785Z,21.27
2018-11-21T10:33:38.832Z,20.00
2018-11-21T10:36:06.889Z,22.73
2018-11-21T10:38:35.102Z,21.10
2018-11-21T10:41:03.158Z,21.40
2018-11-21T10:43:31.946Z,20.80
2018-11-21T10:45:59.991Z,20.13
2018-11-21T10:48:30.235Z,21.37
2018-11-21T10:50:58.429Z,21.00
2018-11-21T10:53:26.789Z,21.00
2018-11-21T10:55:54.867Z,20.63
2018-11-21T10:58:22.918Z,21.43
2018-11-21T11:01:08.789Z,19.73
2018-11-21T11:03:42.321Z,21.17
2018-11-21T11:06:28.816Z,20.80
2018-11-21T11:09:19.012Z,19.30
2018-11-21T11:12:04.851Z,21.93
2018-11-21T11:14:50.490Z,20.10
2018-11-21T11:17:36.399Z,21.47
2018-11-21T11:20:24.450Z,21.17
2018-11-21T11:23:10.921Z,21.70
2018-11-21T11:25:57.124Z,19.33
2018-11-21T11:28:43.301Z,18.90
2018-11-21T11:31:29.065Z,21.70
2018-11-21T11:34:07.404Z,20.27
2018-11-21T11:36:57.448Z,19.30
2018-11-21T11:39:43.193Z,20.93
2018-11-21T11:42:29.069Z,20.13
2018-11-21T11:45:16.348Z,20.90
2018-11-21T11:48:02.123Z,19.63
2018-11-21T11:50:47.781Z,18.73
2018-11-21T11:53:40.863Z,21.07
2018-11-21T11:56:26.677Z,22.13
2018-11-21T11:59:12.597Z,20.67
2018-11-21T12:01:52.941Z,20.90
2018-11-21T12:04:38.706Z,21.33
2018-11-21T12:07:24.461Z,19.23
2018-11-21T12:10:17.639Z,21.53
2018-11-21T12:13:12.567Z,20.17
2018-11-21T12:15:58.323Z,20.10
2018-11-21T12:18:44.360Z,20.70
2018-11-21T12:21:46.837Z,19.33
2018-11-21T12:24:25.970Z,20.37
2018-11-21T12:26:59.352Z,19.80
2018-11-21T12:29:41.816Z,20.70
2018-11-21T12:32:39.192Z,19.20
2018-11-21T12:35:21.082Z,19.10
2018-11-21T12:38:07.114Z,21.00
2018-11-21T12:41:02.025Z,20.67
2018-11-21T12:44:01.519Z,20.63
2018-11-21T12:46:54.710Z,21.40
2018-11-21T12:49:44.844Z,23.20
2018-11-21T12:52:25.832Z,23.60
2018-11-21T12:55:15.700Z,21.43
2018-11-21T12:57:51.771Z,20.53
2018-11-21T13:00:37.597Z,20.80
2018-11-21T13:03:31.112Z,22.80
2018-11-21T13:06:16.819Z,23.53
2018-11-21T13:08:54.405Z,21.07
2018-11-21T13:11:50.493Z,21.00
2018-11-21T13:14:40.594Z,22.03
2018-11-21T13:17:33.198Z,22.93
2018-11-21T13:20:18.971Z,21.10
2018-11-21T13:23:05.159Z,22.13
2018-11-21T13:25:51.236Z,21.60
2018-11-21T13:28:37.176Z,21.73
2018-11-21T13:31:43.064Z,20.50
2018-11-21T13:34:23.005Z,21.20
2018-11-21T13:37:12.886Z,19.47
2018-11-21T13:39:56.752Z,21.40
2018-11-21T13:42:38.055Z,18.80
2018-11-21T13:45:25.311Z,21.57
2018-11-21T13:48:14.028Z,20.57
2018-11-21T13:51:04.115Z,18.30
2018-11-21T13:53:50.140Z,21.33
2018-11-21T13:56:18.224Z,18.60
2018-11-21T13:58:46.307Z,20.03
2018-11-21T14:01:14.432Z,20.33
2018-11-21T14:03:42.477Z,21.00
2018-11-21T14:06:10.599Z,21.00
2018-11-21T14:08:38.649Z,21.30
2018-11-21T14:11:06.772Z,20.77
2018-11-21T14:13:34.781Z,21.20
2018-11-21T14:16:02.829Z,21.17
2018-11-21T14:18:30.877Z,19.13
2018-11-21T14:20:58.929Z,20.40
2018-11-21T14:23:26.981Z,21.20
2018-11-21T14:25:55.022Z,21.70
2018-11-21T14:28:23.075Z,20.87
2018-11-21T14:30:51.136Z,21.53
2018-11-21T14:33:19.194Z,20.23
2018-11-21T14:35:47.309Z,20.33
2018-11-21T14:38:15.360Z,21.50
2018-11-21T14:40:43.434Z,19.70
2018-11-21T14:43:11.490Z,22.77
2018-11-21T14:45:39.550Z,22.13
2018-11-21T14:48:07.598Z,20.30
2018-11-21T14:50:39.246Z,22.77
2018-11-21T14:53:04.849Z,22.03
2018-11-21T14:55:32.962Z,19.20
2018-11-21T14:58:01.069Z,21.63
2018-11-21T15:00:29.125Z,21.17
2018-11-21T15:02:57.169Z,23.10
2018-11-21T15:05:25.239Z,22.10
2018-11-21T15:07:53.290Z,20.70
2018-11-21T15:10:21.356Z,22.83
2018-11-21T15:12:51.438Z,23.47
2018-11-21T15:15:20.368Z,22.00
2018-11-21T15:17:49.510Z,20.30
2018-11-21T15:20:19.243Z,23.30
2018-11-21T15:22:47.400Z,21.27
2018-11-21T15:25:16.698Z,22.23
2018-11-21T15:27:44.751Z,22.60
2018-11-21T15:30:18.485Z,21.07
2018-11-21T15:32:46.549Z,24.67
2018-11-21T15:35:14.596Z,22.87
2018-11-21T15:37:43.359Z,21.50
2018-11-21T15:40:13.827Z,21.60
2018-11-21T15:42:42.058Z,21.90
2018-11-21T15:45:12.633Z,21.67
2018-11-21T15:47:40.712Z,22.37
2018-11-21T15:50:10.929Z,23.77
2018-11-21T15:52:39.210Z,22.43
2018-11-21T15:55:08.242Z,20.60
2018-11-21T15:57:36.473Z,22.73
2018-11-21T16:00:08.480Z,23.83
2018-11-21T16:02:36.539Z,24.10
2018-11-21T16:05:04.718Z,22.30
2018-11-21T16:07:32.768Z,23.70
2018-11-21T16:10:00.810Z,23.10
2018-11-21T16:12:28.854Z,24.43
2018-11-21T16:14:56.892Z,24.47
2018-11-21T16:17:24.945Z,22.70
2018-11-21T16:19:53.030Z,22.87
2018-11-21T16:22:21.057Z,24.27
2018-11-21T16:24:49.097Z,23.57
2018-11-21T16:27:17.232Z,23.93
2018-11-21T16:29:45.286Z,23.20
2018-11-21T16:32:13.902Z,23.70
2018-11-21T16:34:41.954Z,25.00
2018-11-21T16:37:12.251Z,24.93
2018-11-21T16:39:40.336Z,22.77
2018-11-21T16:42:09.728Z,23.53
2018-11-21T16:44:37.778Z,23.97
2018-11-21T16:47:05.832Z,24.77
2018-11-21T16:49:34.062Z,22.13
2018-11-21T16:52:02.119Z,21.87
2018-11-21T16:54:30.243Z,22.80
2018-11-21T16:56:58.318Z,22.90
2018-11-21T16:59:26.354Z,22.90
2018-11-21T17:01:54.406Z,24.57
2018-11-21T17:04:22.500Z,24.33
2018-11-21T17:06:50.553Z,24.00
2018-11-21T17:09:18.634Z,20.50
2018-11-21T17:11:47.090Z,23.67
2018-11-21T17:14:15.175Z,21.50
2018-11-21T17:16:43.225Z,22.80
2018-11-21T17:19:11.320Z,22.47
2018-11-21T17:21:39.373Z,21.67
2018-11-21T17:24:07.442Z,21.97
2018-11-21T17:26:35.478Z,23.90
2018-11-21T17:29:08.605Z,22.50
2018-11-21T17:31:31.580Z,24.40
2018-11-21T17:33:59.641Z,24.57
2018-11-21T17:36:27.702Z,24.23
2018-11-21T17:38:55.745Z,24.50
2018-11-21T17:41:23.817Z,23.77
2018-11-21T17:43:51.881Z,24.30
2018-11-21T17:46:19.933Z,24.70
2018-11-21T17:48:47.975Z,27.13
2018-11-21T17:51:16.077Z,25.13
2018-11-21T17:53:44.149Z,25.13
2018-11-21T17:56:12.215Z,24.40
2018-11-21T17:58:40.257Z,24.77
2018-11-21T18:01:08.317Z,26.27
2018-11-21T18:03:36.389Z,29.70
2018-11-21T18:06:04.456Z,26.30
2018-11-21T18:08:32.518Z,26.50
2018-11-21T18:11:00.567Z,25.30
2018-11-21T18:13:28.609Z,27.03
2018-11-21T18:15:56.661Z,27.03
2018-11-21T18:18:24.717Z,26.17
2018-11-21T18:20:52.810Z,26.27
2018-11-21T18:23:20.901Z,26.73
2018-11-21T18:25:48.958Z,27.20
2018-11-21T18:28:17.835Z,25.87
2018-11-21T18:30:45.914Z,26.60
2018-11-21T18:33:15.069Z,32.67
2018-11-21T18:35:43.120Z,26.13
2018-11-21T18:38:11.206Z,27.13
2018-11-21T18:40:39.234Z,27.00
2018-11-21T18:43:07.322Z,24.03
2018-11-21T18:45:36.992Z,27.80
2018-11-21T18:48:05.493Z,28.00
2018-11-21T18:50:33.557Z,29.30
2018-11-21T18:53:02.922Z,26.17
2018-11-21T18:55:33.271Z,27.37
2018-11-21T18:58:22.515Z,28.00
2018-11-21T19:00:52.379Z,26.90
2018-11-21T19:03:20.594Z,28.77
2018-11-21T19:05:49.394Z,28.63
2018-11-21T19:08:17.630Z,26.70
2018-11-21T19:10:45.717Z,28.13
2018-11-21T19:13:13.822Z,28.73
2018-11-21T19:15:41.821Z,25.73
2018-11-21T19:18:09.895Z,27.60
2018-11-21T19:20:37.954Z,27.20
2018-11-21T19:23:06.238Z,29.07
2018-11-21T19:25:34.270Z,26.23
2018-11-21T19:28:02.347Z,27.00
2018-11-21T19:30:30.413Z,26.20
2018-11-21T19:32:58.479Z,26.60
2018-11-21T19:35:26.533Z,27.63
2018-11-21T19:37:54.602Z,26.83
2018-11-21T19:40:22.660Z,27.40
2018-11-21T19:42:50.736Z,30.67
2018-11-21T19:45:18.829Z,27.10
2018-11-21T19:47:47.326Z,27.80
2018-11-21T19:50:16.407Z,25.20
2018-11-21T19:52:45.302Z,27.70
2018-11-21T19:55:21.486Z,25.40
2018-11-21T19:57:49.599Z,26.23
2018-11-21T20:00:19.751Z,26.70
2018-11-21T20:02:48.226Z,27.03
2018-11-21T20:05:16.291Z,25.83
2018-11-21T20:07:44.385Z,25.40
2018-11-21T20:10:13.571Z,27.13
2018-11-21T20:12:42.254Z,27.00
2018-11-21T20:15:13.091Z,27.03
2018-11-21T20:20:13.124Z,27.33
2018-11-21T20:22:41.614Z,25.83
2018-11-21T20:25:11.407Z,27.27
2018-11-21T20:27:39.516Z,26.30
2018-11-21T20:30:12.766Z,26.13
2018-11-21T20:32:40.851Z,26.53
2018-11-21T20:35:09.851Z,23.27
2018-11-21T20:37:38.550Z,23.83
2018-11-21T20:40:14.115Z,24.27
2018-11-21T20:42:42.854Z,26.30
2018-11-21T20:45:14.412Z,26.30
2018-11-21T20:47:42.826Z,23.90
2018-11-21T20:50:14.540Z,25.77
2018-11-21T20:52:43.649Z,24.83
